sensor_id;sensor_type;location;lat;lon;timestamp;pressure;altitude;pressure_sealevel;temperature;humidity
30021;BME280;16861;52.294;7.760;2023-06-04T00:00:41;100441.16;;;16.25;40.56
30021;BME280;16861;52.294;7.760;2023-06-04T00:03:07;100444.78;;;16.24;40.70
30021;BME280;16861;52.294;7.760;2023-06-04T00:05:34;100436.91;;;16.22;40.71
30021;BME280;16861;52.294;7.760;2023-06-04T00:08:01;100442.31;;;16.21;40.75
30021;BME280;16861;52.294;7.760;2023-06-04T00:10:27;100443.28;;;16.20;40.76
30021;BME280;16861;52.294;7.760;2023-06-04T00:12:54;100439.81;;;16.19;40.52
30021;BME280;16861;52.294;7.760;2023-06-04T00:15:20;100434.59;;;16.18;40.74
30021;BME280;16861;52.294;7.760;2023-06-04T00:17:47;100426.72;;;16.16;40.50
30021;BME280;16861;52.294;7.760;2023-06-04T00:20:15;100436.59;;;16.14;40.56
30021;BME280;16861;52.294;7.760;2023-06-04T00:22:42;100428.88;;;16.11;40.83
30021;BME280;16861;52.294;7.760;2023-06-04T00:25:09;100430.75;;;16.09;41.20
30021;BME280;16861;52.294;7.760;2023-06-04T00:27:36;100432.69;;;16.07;40.97
30021;BME280;16861;52.294;7.760;2023-06-04T00:30:04;100436.41;;;16.04;41.07
30021;BME280;16861;52.294;7.760;2023-06-04T00:32:31;100436.50;;;16.02;41.07
30021;BME280;16861;52.294;7.760;2023-06-04T00:34:57;100431.28;;;16.01;41.32
30021;BME280;16861;52.294;7.760;2023-06-04T00:37:25;100425.38;;;15.97;40.98
30021;BME280;16861;52.294;7.760;2023-06-04T00:39:52;100430.66;;;15.97;41.35
30021;BME280;16861;52.294;7.760;2023-06-04T00:42:18;100425.56;;;15.94;41.50
30021;BME280;16861;52.294;7.760;2023-06-04T00:44:45;100422.13;;;15.92;41.16
30021;BME280;16861;52.294;7.760;2023-06-04T00:47:12;100419.69;;;15.89;41.54
30021;BME280;16861;52.294;7.760;2023-06-04T00:49:39;100419.91;;;15.86;41.24
30021;BME280;16861;52.294;7.760;2023-06-04T00:52:06;100426.38;;;15.82;41.63
30021;BME280;16861;52.294;7.760;2023-06-04T00:54:34;100422.22;;;15.77;41.45
30021;BME280;16861;52.294;7.760;2023-06-04T00:57:01;100422.44;;;15.74;41.15
30021;BME280;16861;52.294;7.760;2023-06-04T00:59:29;100420.19;;;15.68;41.80
30021;BME280;16861;52.294;7.760;2023-06-04T01:02:11;100425.81;;;15.63;42.64
30021;BME280;16861;52.294;7.760;2023-06-04T01:07:21;100425.19;;;15.60;41.69
30021;BME280;16861;52.294;7.760;2023-06-04T01:09:49;100417.31;;;15.58;41.83
30021;BME280;16861;52.294;7.760;2023-06-04T01:12:17;100414.03;;;15.55;42.14
30021;BME280;16861;52.294;7.760;2023-06-04T01:14:43;100412.44;;;15.52;41.86
30021;BME280;16861;52.294;7.760;2023-06-04T01:17:23;100420.78;;;15.46;42.72
30021;BME280;16861;52.294;7.760;2023-06-04T01:20:02;100421.84;;;15.43;42.41
30021;BME280;16861;52.294;7.760;2023-06-04T01:22:52;100421.31;;;15.38;42.12
30021;BME280;16861;52.294;7.760;2023-06-04T01:25:35;100417.91;;;15.36;42.38
30021;BME280;16861;52.294;7.760;2023-06-04T01:28:04;100413.56;;;15.35;42.34
30021;BME280;16861;52.294;7.760;2023-06-04T01:30:36;100418.31;;;15.30;43.05
30021;BME280;16861;52.294;7.760;2023-06-04T01:33:10;100411.31;;;15.29;42.66
30021;BME280;16861;52.294;7.760;2023-06-04T01:35:39;100414.06;;;15.27;42.57
30021;BME280;16861;52.294;7.760;2023-06-04T01:38:07;100421.25;;;15.25;42.80
30021;BME280;16861;52.294;7.760;2023-06-04T01:40:33;100415.22;;;15.23;42.47
30021;BME280;16861;52.294;7.760;2023-06-04T01:43:00;100417.25;;;15.19;42.46
30021;BME280;16861;52.294;7.760;2023-06-04T01:45:27;100419.22;;;15.16;42.63
30021;BME280;16861;52.294;7.760;2023-06-04T01:47:54;100420.28;;;15.13;42.82
30021;BME280;16861;52.294;7.760;2023-06-04T01:50:21;100417.81;;;15.10;42.96
30021;BME280;16861;52.294;7.760;2023-06-04T01:52:48;100415.38;;;15.07;43.37
30021;BME280;16861;52.294;7.760;2023-06-04T01:55:16;100413.78;;;15.04;43.24
30021;BME280;16861;52.294;7.760;2023-06-04T01:57:44;100418.31;;;15.02;43.40
30021;BME280;16861;52.294;7.760;2023-06-04T02:00:12;100420.16;;;15.02;43.33
30021;BME280;16861;52.294;7.760;2023-06-04T02:02:40;100417.69;;;14.98;43.06
30021;BME280;16861;52.294;7.760;2023-06-04T02:05:09;100415.03;;;14.98;43.26
30021;BME280;16861;52.294;7.760;2023-06-04T02:07:42;100410.88;;;14.94;44.26
30021;BME280;16861;52.294;7.760;2023-06-04T02:10:13;100398.59;;;14.93;43.62
30021;BME280;16861;52.294;7.760;2023-06-04T02:12:41;100407.69;;;14.89;43.31
30021;BME280;16861;52.294;7.760;2023-06-04T02:15:18;100418.47;;;14.86;43.52
30021;BME280;16861;52.294;7.760;2023-06-04T02:17:45;100419.63;;;14.82;43.59
30021;BME280;16861;52.294;7.760;2023-06-04T02:20:12;100415.56;;;14.76;43.62
30021;BME280;16861;52.294;7.760;2023-06-04T02:22:38;100412.25;;;14.72;43.55
30021;BME280;16861;52.294;7.760;2023-06-04T02:25:05;100413.47;;;14.67;43.58
30021;BME280;16861;52.294;7.760;2023-06-04T02:27:32;100413.78;;;14.62;43.67
30021;BME280;16861;52.294;7.760;2023-06-04T02:29:58;100407.06;;;14.56;43.84
30021;BME280;16861;52.294;7.760;2023-06-04T02:32:25;100407.44;;;14.50;43.81
30021;BME280;16861;52.294;7.760;2023-06-04T02:34:52;100412.19;;;14.45;43.86
30021;BME280;16861;52.294;7.760;2023-06-04T02:37:18;100420.53;;;14.39;44.11
30021;BME280;16861;52.294;7.760;2023-06-04T02:39:45;100419.94;;;14.33;44.49
30021;BME280;16861;52.294;7.760;2023-06-04T02:42:11;100425.34;;;14.32;44.29
30021;BME280;16861;52.294;7.760;2023-06-04T02:44:38;100419.28;;;14.30;44.52
30021;BME280;16861;52.294;7.760;2023-06-04T02:47:05;100422.91;;;14.29;44.92
30021;BME280;16861;52.294;7.760;2023-06-04T02:49:32;100428.19;;;14.29;44.80
30021;BME280;16861;52.294;7.760;2023-06-04T02:51:58;100426.41;;;14.29;44.48
30021;BME280;16861;52.294;7.760;2023-06-04T02:54:25;100423.75;;;14.29;44.91
30021;BME280;16861;52.294;7.760;2023-06-04T02:56:52;100421.94;;;14.30;44.64
30021;BME280;16861;52.294;7.760;2023-06-04T02:59:19;100427.31;;;14.28;44.70
30021;BME280;16861;52.294;7.760;2023-06-04T03:01:46;100429.88;;;14.30;44.90
30021;BME280;16861;52.294;7.760;2023-06-04T03:04:13;100424.69;;;14.28;45.06
30021;BME280;16861;52.294;7.760;2023-06-04T03:06:42;100428.19;;;14.29;45.08
30021;BME280;16861;52.294;7.760;2023-06-04T03:09:13;100426.50;;;14.28;45.36
30021;BME280;16861;52.294;7.760;2023-06-04T03:11:39;100424.69;;;14.28;45.23
30021;BME280;16861;52.294;7.760;2023-06-04T03:14:06;100425.63;;;14.27;45.39
30021;BME280;16861;52.294;7.760;2023-06-04T03:16:33;100419.47;;;14.27;45.20
30021;BME280;16861;52.294;7.760;2023-06-04T03:18:59;100422.97;;;14.27;45.34
30021;BME280;16861;52.294;7.760;2023-06-04T03:21:27;100424.88;;;14.25;45.51
30021;BME280;16861;52.294;7.760;2023-06-04T03:23:55;100415.22;;;14.24;45.18
30021;BME280;16861;52.294;7.760;2023-06-04T03:26:22;100424.97;;;14.24;45.14
30021;BME280;16861;52.294;7.760;2023-06-04T03:28:48;100421.56;;;14.22;45.49
30021;BME280;16861;52.294;7.760;2023-06-04T03:31:15;100422.50;;;14.20;45.51
30021;BME280;16861;52.294;7.760;2023-06-04T03:33:42;100431.50;;;14.18;45.28
30021;BME280;16861;52.294;7.760;2023-06-04T03:36:08;100429.91;;;14.15;45.52
30021;BME280;16861;52.294;7.760;2023-06-04T03:38:35;100429.13;;;14.13;45.62
30021;BME280;16861;52.294;7.760;2023-06-04T03:41:01;100431.03;;;14.11;45.70
30021;BME280;16861;52.294;7.760;2023-06-04T03:43:28;100422.31;;;14.09;45.81
30021;BME280;16861;52.294;7.760;2023-06-04T03:45:55;100425.81;;;14.10;46.20
30021;BME280;16861;52.294;7.760;2023-06-04T03:48:21;100433.75;;;14.10;46.26
30021;BME280;16861;52.294;7.760;2023-06-04T03:50:48;100427.59;;;14.09;46.37
30021;BME280;16861;52.294;7.760;2023-06-04T03:53:16;100426.69;;;14.10;46.33
30021;BME280;16861;52.294;7.760;2023-06-04T03:55:42;100420.44;;;14.11;46.25
30021;BME280;16861;52.294;7.760;2023-06-04T03:58:09;100421.28;;;14.12;46.17
30021;BME280;16861;52.294;7.760;2023-06-04T04:00:38;100429.97;;;14.14;46.60
30021;BME280;16861;52.294;7.760;2023-06-04T04:03:06;100424.59;;;14.15;46.51
30021;BME280;16861;52.294;7.760;2023-06-04T04:05:36;100421.00;;;14.16;46.55
30021;BME280;16861;52.294;7.760;2023-06-04T04:08:04;100424.59;;;14.15;46.40
30021;BME280;16861;52.294;7.760;2023-06-04T04:10:30;100414.09;;;14.14;46.39
30021;BME280;16861;52.294;7.760;2023-06-04T04:12:57;100423.81;;;14.13;46.84
30021;BME280;16861;52.294;7.760;2023-06-04T04:15:24;100418.63;;;14.12;46.89
30021;BME280;16861;52.294;7.760;2023-06-04T04:17:51;100416.84;;;14.12;46.81
30021;BME280;16861;52.294;7.760;2023-06-04T04:20:19;100424.88;;;14.11;46.85
30021;BME280;16861;52.294;7.760;2023-06-04T04:22:45;100417.78;;;14.11;46.98
30021;BME280;16861;52.294;7.760;2023-06-04T04:25:14;100421.28;;;14.12;46.85
30021;BME280;16861;52.294;7.760;2023-06-04T04:27:41;100424.78;;;14.12;46.84
30021;BME280;16861;52.294;7.760;2023-06-04T04:30:08;100425.72;;;14.11;46.85
30021;BME280;16861;52.294;7.760;2023-06-04T04:32:34;100423.81;;;14.13;47.27
30021;BME280;16861;52.294;7.760;2023-06-04T04:35:05;100418.44;;;14.15;47.20
30021;BME280;16861;52.294;7.760;2023-06-04T04:37:31;100421.88;;;14.17;47.20
30021;BME280;16861;52.294;7.760;2023-06-04T04:39:58;100420.91;;;14.18;47.46
30021;BME280;16861;52.294;7.760;2023-06-04T04:42:24;100425.16;;;14.20;47.34
30021;BME280;16861;52.294;7.760;2023-06-04T04:44:51;100425.91;;;14.23;47.53
30021;BME280;16861;52.294;7.760;2023-06-04T04:47:17;100423.06;;;14.26;47.55
30021;BME280;16861;52.294;7.760;2023-06-04T04:49:44;100420.34;;;14.27;47.57
30021;BME280;16861;52.294;7.760;2023-06-04T04:52:14;100424.59;;;14.30;47.23
30021;BME280;16861;52.294;7.760;2023-06-04T04:54:41;100430.75;;;14.30;47.51
30021;BME280;16861;52.294;7.760;2023-06-04T04:57:07;100427.06;;;14.33;47.30
30021;BME280;16861;52.294;7.760;2023-06-04T04:59:39;100426.97;;;14.35;47.23
30021;BME280;16861;52.294;7.760;2023-06-04T05:02:06;100421.44;;;14.38;47.74
30021;BME280;16861;52.294;7.760;2023-06-04T05:04:33;100431.03;;;14.40;47.75
30021;BME280;16861;52.294;7.760;2023-06-04T05:06:59;100439.72;;;14.42;47.90
30021;BME280;16861;52.294;7.760;2023-06-04T05:09:26;100437.72;;;14.46;47.69
30021;BME280;16861;52.294;7.760;2023-06-04T05:11:52;100430.47;;;14.50;47.76
30021;BME280;16861;52.294;7.760;2023-06-04T05:14:19;100434.63;;;14.54;47.91
30021;BME280;16861;52.294;7.760;2023-06-04T05:16:46;100437.91;;;14.57;47.93
30021;BME280;16861;52.294;7.760;2023-06-04T05:19:18;100433.25;;;14.61;48.43
30021;BME280;16861;52.294;7.760;2023-06-04T05:21:44;100433.72;;;14.68;47.87
30021;BME280;16861;52.294;7.760;2023-06-04T05:24:11;100432.66;;;14.70;47.89
30021;BME280;16861;52.294;7.760;2023-06-04T05:26:37;100434.31;;;14.73;47.76
30021;BME280;16861;52.294;7.760;2023-06-04T05:29:06;100432.31;;;14.77;47.73
30021;BME280;16861;52.294;7.760;2023-06-04T05:31:34;100436.50;;;14.81;47.75
30021;BME280;16861;52.294;7.760;2023-06-04T05:34:03;100435.34;;;14.85;47.52
30021;BME280;16861;52.294;7.760;2023-06-04T05:36:33;100431.53;;;14.89;47.38
30021;BME280;16861;52.294;7.760;2023-06-04T05:38:59;100434.75;;;14.94;47.21
30021;BME280;16861;52.294;7.760;2023-06-04T05:41:27;100430.94;;;14.98;47.41
30021;BME280;16861;52.294;7.760;2023-06-04T05:43:53;100429.69;;;15.04;47.01
30021;BME280;16861;52.294;7.760;2023-06-04T05:46:20;100433.84;;;15.08;47.04
30021;BME280;16861;52.294;7.760;2023-06-04T05:48:48;100433.53;;;15.13;47.20
30021;BME280;16861;52.294;7.760;2023-06-04T05:51:14;100430.69;;;15.16;47.19
30021;BME280;16861;52.294;7.760;2023-06-04T05:53:41;100436.53;;;15.21;47.57
30021;BME280;16861;52.294;7.760;2023-06-04T05:56:08;100435.28;;;15.27;47.26
30021;BME280;16861;52.294;7.760;2023-06-04T05:58:35;100435.81;;;15.32;47.38
30021;BME280;16861;52.294;7.760;2023-06-04T06:01:01;100437.22;;;15.38;47.51
30021;BME280;16861;52.294;7.760;2023-06-04T06:03:29;100437.66;;;15.45;47.34
30021;BME280;16861;52.294;7.760;2023-06-04T06:05:56;100438.97;;;15.52;47.25
30021;BME280;16861;52.294;7.760;2023-06-04T06:08:24;100442.91;;;15.59;47.57
30021;BME280;16861;52.294;7.760;2023-06-04T06:10:51;100446.94;;;15.65;47.27
30021;BME280;16861;52.294;7.760;2023-06-04T06:13:18;100443.75;;;15.73;47.34
30021;BME280;16861;52.294;7.760;2023-06-04T06:15:46;100448.78;;;15.77;47.07
30021;BME280;16861;52.294;7.760;2023-06-04T06:18:13;100447.50;;;15.83;46.93
30021;BME280;16861;52.294;7.760;2023-06-04T06:20:39;100443.59;;;15.89;46.46
30021;BME280;16861;52.294;7.760;2023-06-04T06:23:07;100445.91;;;15.94;46.65
30021;BME280;16861;52.294;7.760;2023-06-04T06:25:34;100447.44;;;15.98;46.58
30021;BME280;16861;52.294;7.760;2023-06-04T06:28:00;100449.78;;;16.02;46.53
30021;BME280;16861;52.294;7.760;2023-06-04T06:30:27;100452.22;;;16.06;46.42
30021;BME280;16861;52.294;7.760;2023-06-04T06:32:54;100455.28;;;16.12;46.29
30021;BME280;16861;52.294;7.760;2023-06-04T06:35:22;100455.94;;;16.16;46.13
30021;BME280;16861;52.294;7.760;2023-06-04T06:37:48;100451.16;;;16.21;46.26
30021;BME280;16861;52.294;7.760;2023-06-04T06:40:15;100456.16;;;16.26;46.14
30021;BME280;16861;52.294;7.760;2023-06-04T06:42:41;100455.81;;;16.31;46.40
30021;BME280;16861;52.294;7.760;2023-06-04T06:45:08;100458.06;;;16.37;46.50
30021;BME280;16861;52.294;7.760;2023-06-04T06:47:35;100458.59;;;16.42;46.61
30021;BME280;16861;52.294;7.760;2023-06-04T06:50:02;100460.78;;;16.48;46.78
30021;BME280;16861;52.294;7.760;2023-06-04T06:52:28;100464.72;;;16.56;46.54
30021;BME280;16861;52.294;7.760;2023-06-04T06:54:58;100461.63;;;16.62;46.51
30021;BME280;16861;52.294;7.760;2023-06-04T06:57:25;100459.25;;;16.70;46.52
30021;BME280;16861;52.294;7.760;2023-06-04T06:59:52;100457.13;;;16.75;46.66
30021;BME280;16861;52.294;7.760;2023-06-04T07:02:20;100467.13;;;16.85;46.50
30021;BME280;16861;52.294;7.760;2023-06-04T07:04:47;100462.19;;;16.91;46.59
30021;BME280;16861;52.294;7.760;2023-06-04T07:07:14;100467.78;;;17.00;46.59
30021;BME280;16861;52.294;7.760;2023-06-04T07:09:44;100468.09;;;17.08;46.41
30021;BME280;16861;52.294;7.760;2023-06-04T07:12:10;100471.91;;;17.17;46.17
30021;BME280;16861;52.294;7.760;2023-06-04T07:14:37;100475.84;;;17.24;46.12
30021;BME280;16861;52.294;7.760;2023-06-04T07:17:03;100472.59;;;17.32;45.87
30021;BME280;16861;52.294;7.760;2023-06-04T07:19:30;100474.78;;;17.38;45.90
30021;BME280;16861;52.294;7.760;2023-06-04T07:21:57;100484.75;;;17.48;45.70
30021;BME280;16861;52.294;7.760;2023-06-04T07:24:23;100474.47;;;17.54;45.50
30021;BME280;16861;52.294;7.760;2023-06-04T07:26:50;100475.72;;;17.62;45.50
30021;BME280;16861;52.294;7.760;2023-06-04T07:29:16;100478.66;;;17.70;45.58
30021;BME280;16861;52.294;7.760;2023-06-04T07:31:43;100483.28;;;17.79;45.48
30021;BME280;16861;52.294;7.760;2023-06-04T07:34:10;100483.56;;;17.88;45.41
30021;BME280;16861;52.294;7.760;2023-06-04T07:36:36;100480.06;;;17.98;45.16
30021;BME280;16861;52.294;7.760;2023-06-04T07:39:03;100488.31;;;18.07;44.89
30021;BME280;16861;52.294;7.760;2023-06-04T07:41:32;100479.63;;;18.16;44.75
30021;BME280;16861;52.294;7.760;2023-06-04T07:43:59;100484.38;;;18.24;44.68
30021;BME280;16861;52.294;7.760;2023-06-04T07:46:26;100485.34;;;18.34;44.30
30021;BME280;16861;52.294;7.760;2023-06-04T07:48:52;100481.22;;;18.42;44.17
30021;BME280;16861;52.294;7.760;2023-06-04T07:51:19;100490.22;;;18.52;44.51
30021;BME280;16861;52.294;7.760;2023-06-04T07:53:46;100491.28;;;18.61;44.57
30021;BME280;16861;52.294;7.760;2023-06-04T07:56:12;100489.72;;;18.70;44.67
30021;BME280;16861;52.294;7.760;2023-06-04T07:58:39;100488.00;;;18.80;44.52
30021;BME280;16861;52.294;7.760;2023-06-04T08:01:05;100505.69;;;18.93;44.28
30021;BME280;16861;52.294;7.760;2023-06-04T08:03:33;100496.09;;;19.01;44.10
30021;BME280;16861;52.294;7.760;2023-06-04T08:06:00;100500.59;;;19.12;43.86
30021;BME280;16861;52.294;7.760;2023-06-04T08:08:29;100501.41;;;19.24;43.34
30021;BME280;16861;52.294;7.760;2023-06-04T08:10:56;100495.31;;;19.34;43.50
30021;BME280;16861;52.294;7.760;2023-06-04T08:13:23;100497.09;;;19.45;43.31
30021;BME280;16861;52.294;7.760;2023-06-04T08:15:49;100498.75;;;19.57;43.39
30021;BME280;16861;52.294;7.760;2023-06-04T08:18:16;100493.59;;;19.65;43.07
30021;BME280;16861;52.294;7.760;2023-06-04T08:20:42;100493.53;;;19.77;42.85
30021;BME280;16861;52.294;7.760;2023-06-04T08:23:09;100494.47;;;19.87;42.59
30021;BME280;16861;52.294;7.760;2023-06-04T08:25:35;100488.34;;;19.97;42.61
30021;BME280;16861;52.294;7.760;2023-06-04T08:28:02;100499.94;;;20.07;42.81
30021;BME280;16861;52.294;7.760;2023-06-04T08:30:29;100499.88;;;20.18;42.49
30021;BME280;16861;52.294;7.760;2023-06-04T08:32:55;100499.81;;;20.30;42.16
30021;BME280;16861;52.294;7.760;2023-06-04T08:35:22;100508.72;;;20.40;41.34
30021;BME280;16861;52.294;7.760;2023-06-04T08:37:49;100505.13;;;20.51;42.02
30021;BME280;16861;52.294;7.760;2023-06-04T08:40:15;100510.38;;;20.63;41.63
30021;BME280;16861;52.294;7.760;2023-06-04T08:42:43;100514.06;;;20.72;41.25
30021;BME280;16861;52.294;7.760;2023-06-04T08:45:12;100513.97;;;20.83;41.11
30021;BME280;16861;52.294;7.760;2023-06-04T08:47:49;100507.09;;;20.90;41.02
30021;BME280;16861;52.294;7.760;2023-06-04T08:50:22;100513.34;;;21.01;40.63
30021;BME280;16861;52.294;7.760;2023-06-04T08:52:54;100512.50;;;21.10;40.09
30021;BME280;16861;52.294;7.760;2023-06-04T08:55:22;100518.72;;;21.20;40.33
30021;BME280;16861;52.294;7.760;2023-06-04T08:57:50;100506.34;;;21.29;39.51
30021;BME280;16861;52.294;7.760;2023-06-04T09:00:20;100509.16;;;21.38;40.49
30021;BME280;16861;52.294;7.760;2023-06-04T09:02:47;100510.88;;;21.48;40.08
30021;BME280;16861;52.294;7.760;2023-06-04T09:05:20;100514.66;;;21.56;40.17
30021;BME280;16861;52.294;7.760;2023-06-04T09:07:48;100508.16;;;21.68;39.22
30021;BME280;16861;52.294;7.760;2023-06-04T09:10:18;100505.38;;;21.80;39.00
30021;BME280;16861;52.294;7.760;2023-06-04T09:12:49;100500.97;;;21.89;39.44
30021;BME280;16861;52.294;7.760;2023-06-04T09:15:16;100508.19;;;21.98;38.46
30021;BME280;16861;52.294;7.760;2023-06-04T09:17:43;100508.31;;;22.06;38.60
30021;BME280;16861;52.294;7.760;2023-06-04T09:20:20;100504.91;;;22.14;38.35
30021;BME280;16861;52.294;7.760;2023-06-04T09:22:47;100505.41;;;22.28;37.87
30021;BME280;16861;52.294;7.760;2023-06-04T09:25:24;100508.22;;;22.36;37.43
30021;BME280;16861;52.294;7.760;2023-06-04T09:27:54;100515.94;;;22.49;38.02
30021;BME280;16861;52.294;7.760;2023-06-04T09:30:24;100505.19;;;22.59;38.23
30021;BME280;16861;52.294;7.760;2023-06-04T09:32:50;100517.72;;;22.68;37.49
30021;BME280;16861;52.294;7.760;2023-06-04T09:35:19;100506.09;;;22.77;37.47
30021;BME280;16861;52.294;7.760;2023-06-04T09:37:56;100512.56;;;22.85;35.57
30021;BME280;16861;52.294;7.760;2023-06-04T09:40:23;100510.66;;;22.95;36.04
30021;BME280;16861;52.294;7.760;2023-06-04T09:42:50;100512.59;;;23.03;36.43
30021;BME280;16861;52.294;7.760;2023-06-04T09:45:31;100510.00;;;23.11;35.12
30021;BME280;16861;52.294;7.760;2023-06-04T09:47:59;100519.69;;;23.22;35.33
30021;BME280;16861;52.294;7.760;2023-06-04T09:50:34;100510.31;;;23.26;35.57
30021;BME280;16861;52.294;7.760;2023-06-04T09:53:17;100512.13;;;23.36;35.52
30021;BME280;16861;52.294;7.760;2023-06-04T09:55:44;100519.13;;;23.47;35.21
30021;BME280;16861;52.294;7.760;2023-06-04T09:58:11;100519.19;;;23.55;34.48
30021;BME280;16861;52.294;7.760;2023-06-04T10:00:38;100515.72;;;23.63;34.64
30021;BME280;16861;52.294;7.760;2023-06-04T10:03:09;100512.41;;;23.69;32.85
30021;BME280;16861;52.294;7.760;2023-06-04T10:05:40;100506.41;;;23.75;33.63
30021;BME280;16861;52.294;7.760;2023-06-04T10:08:08;100511.31;;;23.80;34.61
30021;BME280;16861;52.294;7.760;2023-06-04T10:10:36;100508.16;;;23.85;34.37
30021;BME280;16861;52.294;7.760;2023-06-04T10:13:18;100504.31;;;23.87;34.53
30021;BME280;16861;52.294;7.760;2023-06-04T10:15:48;100497.84;;;23.98;34.05
30021;BME280;16861;52.294;7.760;2023-06-04T10:18:16;100509.31;;;24.08;33.81
30021;BME280;16861;52.294;7.760;2023-06-04T10:20:43;100500.53;;;24.16;33.14
30021;BME280;16861;52.294;7.760;2023-06-04T10:23:10;100503.06;;;24.26;33.79
30021;BME280;16861;52.294;7.760;2023-06-04T10:25:37;100497.75;;;24.34;33.58
30021;BME280;16861;52.294;7.760;2023-06-04T10:28:04;100499.31;;;24.45;33.42
30021;BME280;16861;52.294;7.760;2023-06-04T10:30:30;100492.97;;;24.55;33.62
30021;BME280;16861;52.294;7.760;2023-06-04T10:32:57;100496.53;;;24.64;33.20
30021;BME280;16861;52.294;7.760;2023-06-04T10:35:31;100488.34;;;24.73;33.64
30021;BME280;16861;52.294;7.760;2023-06-04T10:38:06;100492.25;;;24.88;33.40
30021;BME280;16861;52.294;7.760;2023-06-04T10:40:33;100499.75;;;25.10;33.71
30021;BME280;16861;52.294;7.760;2023-06-04T10:43:07;100503.81;;;25.31;32.48
30021;BME280;16861;52.294;7.760;2023-06-04T10:45:35;100497.13;;;25.60;32.53
30021;BME280;16861;52.294;7.760;2023-06-04T10:48:06;100503.53;;;25.93;32.48
30021;BME280;16861;52.294;7.760;2023-06-04T10:50:34;100492.00;;;26.32;33.42
30021;BME280;16861;52.294;7.760;2023-06-04T10:53:01;100491.13;;;26.80;32.74
30021;BME280;16861;52.294;7.760;2023-06-04T10:55:30;100500.63;;;27.31;31.90
30021;BME280;16861;52.294;7.760;2023-06-04T10:58:00;100499.59;;;27.79;31.45
30021;BME280;16861;52.294;7.760;2023-06-04T11:00:37;100503.88;;;28.27;32.86
30021;BME280;16861;52.294;7.760;2023-06-04T11:03:05;100487.88;;;28.77;30.36
30021;BME280;16861;52.294;7.760;2023-06-04T11:08:02;100493.19;;;29.66;29.61
30021;BME280;16861;52.294;7.760;2023-06-04T11:10:34;100495.97;;;30.08;28.74
30021;BME280;16861;52.294;7.760;2023-06-04T11:13:02;100495.41;;;30.48;29.25
30021;BME280;16861;52.294;7.760;2023-06-04T11:18:14;100490.44;;;31.14;27.64
30021;BME280;16861;52.294;7.760;2023-06-04T11:20:40;100482.75;;;31.45;28.57
30021;BME280;16861;52.294;7.760;2023-06-04T11:23:08;100479.78;;;31.73;27.77
30021;BME280;16861;52.294;7.760;2023-06-04T11:25:37;100484.19;;;32.02;26.98
30021;BME280;16861;52.294;7.760;2023-06-04T11:28:04;100473.44;;;32.27;26.56
30021;BME280;16861;52.294;7.760;2023-06-04T11:30:30;100474.66;;;32.45;25.67
30021;BME280;16861;52.294;7.760;2023-06-04T11:33:04;100471.28;;;32.56;25.78
30021;BME280;16861;52.294;7.760;2023-06-04T11:35:39;100471.19;;;32.70;26.14
30021;BME280;16861;52.294;7.760;2023-06-04T11:38:06;100473.38;;;32.93;25.92
30021;BME280;16861;52.294;7.760;2023-06-04T11:40:35;100474.56;;;33.11;25.69
30021;BME280;16861;52.294;7.760;2023-06-04T11:43:02;100478.41;;;33.28;24.62
30021;BME280;16861;52.294;7.760;2023-06-04T11:45:28;100466.09;;;33.45;26.15
30021;BME280;16861;52.294;7.760;2023-06-04T11:47:58;100468.31;;;33.61;25.52
30021;BME280;16861;52.294;7.760;2023-06-04T11:50:28;100472.56;;;33.76;24.58
30021;BME280;16861;52.294;7.760;2023-06-04T11:52:55;100468.19;;;33.93;25.39
30021;BME280;16861;52.294;7.760;2023-06-04T11:55:22;100464.28;;;34.08;24.18
30021;BME280;16861;52.294;7.760;2023-06-04T11:57:49;100463.31;;;34.21;23.85
30021;BME280;16861;52.294;7.760;2023-06-04T12:00:17;100457.53;;;34.29;23.09
30021;BME280;16861;52.294;7.760;2023-06-04T12:02:55;100448.63;;;34.34;23.96
30021;BME280;16861;52.294;7.760;2023-06-04T12:05:23;100454.53;;;34.50;23.15
30021;BME280;16861;52.294;7.760;2023-06-04T12:08:06;100450.81;;;34.63;24.28
30021;BME280;16861;52.294;7.760;2023-06-04T12:10:42;100452.22;;;34.84;22.09
30021;BME280;16861;52.294;7.760;2023-06-04T12:13:10;100452.38;;;35.01;22.85
30021;BME280;16861;52.294;7.760;2023-06-04T12:15:37;100458.28;;;35.17;23.15
30021;BME280;16861;52.294;7.760;2023-06-04T12:18:03;100458.06;;;35.30;22.39
30021;BME280;16861;52.294;7.760;2023-06-04T12:20:33;100449.25;;;35.40;21.53
30021;BME280;16861;52.294;7.760;2023-06-04T12:23:01;100452.13;;;35.45;21.16
30021;BME280;16861;52.294;7.760;2023-06-04T12:25:29;100452.22;;;35.51;23.33
30021;BME280;16861;52.294;7.760;2023-06-04T12:27:56;100452.72;;;35.59;22.14
30021;BME280;16861;52.294;7.760;2023-06-04T12:30:23;100443.91;;;35.69;21.95
30021;BME280;16861;52.294;7.760;2023-06-04T12:33:00;100438.69;;;35.80;21.66
30021;BME280;16861;52.294;7.760;2023-06-04T12:35:27;100443.91;;;35.93;21.62
30021;BME280;16861;52.294;7.760;2023-06-04T12:37:53;100448.03;;;36.08;22.08
30021;BME280;16861;52.294;7.760;2023-06-04T12:40:20;100445.06;;;36.21;21.53
30021;BME280;16861;52.294;7.760;2023-06-04T12:42:50;100436.56;;;36.35;20.65
30021;BME280;16861;52.294;7.760;2023-06-04T12:45:16;100434.94;;;36.51;21.42
30021;BME280;16861;52.294;7.760;2023-06-04T12:47:43;100439.53;;;36.62;20.96
30021;BME280;16861;52.294;7.760;2023-06-04T12:50:10;100439.41;;;36.69;20.70
30021;BME280;16861;52.294;7.760;2023-06-04T12:52:37;100435.19;;;36.79;20.22
30021;BME280;16861;52.294;7.760;2023-06-04T12:55:03;100430.97;;;36.88;20.24
30021;BME280;16861;52.294;7.760;2023-06-04T12:57:30;100434.72;;;36.99;19.89
30021;BME280;16861;52.294;7.760;2023-06-04T12:59:57;100437.28;;;37.06;19.86
30021;BME280;16861;52.294;7.760;2023-06-04T13:02:24;100429.97;;;37.11;20.22